Time;durP1;ratioP1;P1;durP2;ratioP2;P2;SDS_P1;SDS_P2;PMS_P1;PMS_P2;Temp;Humidity;BMP_temperature;BMP_pressure;BME280_temperature;BME280_humidity;BME280_pressure;Samples;Min_cycle;Max_cycle;Signal;HPM_P1;HPM_P2
2023/01/10 00:01:36;;;;;;;18.35;10.55;;;5.70;99.90;;;;;;5000257;28;20100;-42
2023/01/10 00:04:02;;;;;;;17.65;8.13;;;5.70;99.90;;;;;;5019773;28;20111;-42
2023/01/10 00:06:28;;;;;;;21.40;8.98;;;5.60;99.90;;;;;;5001358;28;20037;-42
2023/01/10 00:08:56;;;;;;;19.55;8.50;;;5.60;99.90;;;;;;5017003;28;20495;-42
2023/01/10 00:14:06;;;;;;;11.30;4.82;;;5.50;99.90;;;;;;5008271;28;20061;-42
2023/01/10 00:16:32;;;;;;;15.15;4.53;;;5.40;99.90;;;;;;5006713;28;20050;-42
2023/01/10 00:18:57;;;;;;;17.15;6.15;;;5.30;99.90;;;;;;5005713;28;20041;-42
2023/01/10 00:21:23;;;;;;;20.80;7.65;;;5.20;99.90;;;;;;5005111;28;20496;-42
2023/01/10 00:23:49;;;;;;;26.48;12.88;;;5.20;99.90;;;;;;5014145;28;20132;-42
2023/01/10 00:26:14;;;;;;;21.40;7.45;;;5.10;99.90;;;;;;5006485;28;20185;-42
2023/01/10 00:28:41;;;;;;;13.88;6.82;;;5.00;99.90;;;;;;5000266;28;20546;-40
2023/01/10 00:31:10;;;;;;;13.90;6.45;;;4.90;99.90;;;;;;5018377;28;20124;-40
2023/01/10 00:33:36;;;;;;;17.10;6.63;;;4.90;99.90;;;;;;5007680;28;20499;-42
2023/01/10 00:36:05;;;;;;;22.17;11.00;;;4.80;99.90;;;;;;5006715;28;20044;-41
2023/01/10 00:38:35;;;;;;;22.38;11.60;;;4.80;99.90;;;;;;5004571;28;20038;-41
2023/01/10 00:41:02;;;;;;;21.17;9.80;;;4.80;99.90;;;;;;5007491;28;20045;-41
2023/01/10 00:46:12;;;;;;;22.08;9.90;;;4.80;99.90;;;;;;5023963;28;20057;-40
2023/01/10 00:48:38;;;;;;;14.55;6.32;;;4.80;99.90;;;;;;5010113;28;20031;-40
2023/01/10 00:51:04;;;;;;;13.75;4.30;;;4.80;99.90;;;;;;5002340;28;20034;-41
2023/01/10 00:53:30;;;;;;;18.48;4.90;;;4.80;99.90;;;;;;5007408;28;20431;-41
2023/01/10 00:55:56;;;;;;;22.13;10.50;;;4.90;99.90;;;;;;5006755;28;20034;-41
2023/01/10 00:58:22;;;;;;;20.63;7.63;;;5.00;99.90;;;;;;5010071;28;20133;-41
2023/01/10 01:00:51;;;;;;;14.88;5.00;;;5.10;99.90;;;;;;5006140;28;20121;-42
2023/01/10 01:03:19;;;;;;;16.95;6.40;;;5.10;99.90;;;;;;5011782;28;20498;-41
2023/01/10 01:05:46;;;;;;;16.15;5.18;;;5.10;99.90;;;;;;5011112;28;20034;-41
2023/01/10 01:08:14;;;;;;;18.67;6.60;;;5.20;99.90;;;;;;5003575;28;20133;-41
2023/01/10 01:10:39;;;;;;;31.70;13.45;;;5.30;99.90;;;;;;5011623;28;20030;-42
2023/01/10 01:13:14;;;;;;;26.80;10.20;;;5.30;99.90;;;;;;5007577;28;20037;-41
2023/01/10 01:15:40;;;;;;;19.92;5.75;;;5.30;99.90;;;;;;4994175;28;20558;-42
2023/01/10 01:18:07;;;;;;;17.92;5.43;;;5.30;99.90;;;;;;5019318;28;20073;-42
2023/01/10 01:20:33;;;;;;;17.20;7.10;;;5.30;99.90;;;;;;4998567;28;20034;-41
2023/01/10 01:22:59;;;;;;;21.05;6.35;;;5.20;99.90;;;;;;5023310;28;20111;-40
2023/01/10 01:25:25;;;;;;;17.55;5.10;;;5.20;99.90;;;;;;5007790;28;20429;-42
2023/01/10 01:27:51;;;;;;;18.10;5.22;;;5.20;99.90;;;;;;5024269;28;20037;-41
2023/01/10 01:30:17;;;;;;;22.75;8.02;;;5.20;99.90;;;;;;5006728;28;20036;-41
2023/01/10 01:32:43;;;;;;;18.90;4.90;;;5.20;99.90;;;;;;5017357;28;20049;-41
2023/01/10 01:35:13;;;;;;;12.48;4.25;;;5.20;99.90;;;;;;5024948;28;20092;-43
2023/01/10 01:37:38;;;;;;;18.58;3.92;;;5.20;99.90;;;;;;5012880;28;20041;-41
2023/01/10 01:40:06;;;;;;;19.33;4.88;;;5.20;99.90;;;;;;5008196;28;20112;-42
2023/01/10 01:42:34;;;;;;;14.48;4.53;;;5.20;99.90;;;;;;4999595;28;20108;-41
2023/01/10 01:45:17;;;;;;;16.73;4.32;;;5.20;99.90;;;;;;5017432;28;20040;-41
2023/01/10 01:48:08;;;;;;;16.80;4.18;;;5.20;99.90;;;;;;5000743;28;20042;-41
2023/01/10 01:50:41;;;;;;;11.45;3.95;;;5.20;99.90;;;;;;5012784;28;20041;-41
2023/01/10 01:53:13;;;;;;;19.60;5.40;;;5.20;99.90;;;;;;5019231;28;20109;-41
2023/01/10 01:55:40;;;;;;;14.32;4.18;;;5.10;99.90;;;;;;5009652;28;20035;-41
2023/01/10 01:58:12;;;;;;;18.20;4.50;;;5.00;99.90;;;;;;5003436;28;20042;-41
2023/01/10 02:00:38;;;;;;;12.23;3.53;;;4.90;99.90;;;;;;5009438;28;20070;-41
2023/01/10 02:03:05;;;;;;;12.90;4.15;;;4.90;99.90;;;;;;5002787;28;20104;-41
2023/01/10 02:05:34;;;;;;;16.88;4.20;;;4.80;99.90;;;;;;5006494;28;20034;-40
2023/01/10 02:08:01;;;;;;;13.02;4.03;;;4.90;99.90;;;;;;5026020;28;20044;-41
2023/01/10 02:10:51;;;;;;;12.32;3.42;;;4.90;99.90;;;;;;5003683;28;20038;-41
2023/01/10 02:13:20;;;;;;;14.52;4.20;;;4.80;99.90;;;;;;4996726;28;20504;-41
2023/01/10 02:15:46;;;;;;;12.88;4.40;;;4.80;99.90;;;;;;4999425;28;20041;-41
2023/01/10 02:18:12;;;;;;;14.73;4.32;;;4.80;99.90;;;;;;5007061;28;20108;-40
2023/01/10 02:20:58;;;;;;;17.67;4.45;;;4.90;99.90;;;;;;5014120;28;20038;-41
2023/01/10 02:24:03;;;;;;;15.85;4.93;;;4.90;99.90;;;;;;5015239;28;20061;-42
2023/01/10 02:26:47;;;;;;;;;;;4.90;99.90;;;;;;5002447;28;20057;-41
2023/01/10 02:29:40;;;;;;;17.38;4.35;;;4.80;99.90;;;;;;4996911;28;19921;-40
2023/01/10 02:32:21;;;;;;;14.90;4.18;;;4.80;99.90;;;;;;4992948;28;20042;-41
2023/01/10 02:35:01;;;;;;;16.60;4.55;;;4.80;99.90;;;;;;5023086;28;20041;-41
2023/01/10 02:37:43;;;;;;;16.08;4.45;;;4.80;99.90;;;;;;5007110;28;20033;-40
2023/01/10 02:40:31;;;;;;;16.38;4.47;;;4.70;99.90;;;;;;4995832;28;20041;-41
2023/01/10 02:43:21;;;;;;;14.60;4.55;;;4.70;99.90;;;;;;5008278;28;20491;-41
2023/01/10 02:45:54;;;;;;;17.85;4.45;;;4.60;99.90;;;;;;4998611;28;20036;-41
2023/01/10 02:48:20;;;;;;;20.42;4.00;;;4.60;99.90;;;;;;5000717;28;20046;-41
2023/01/10 02:50:53;;;;;;;12.60;4.07;;;4.60;99.90;;;;;;5006281;28;20034;-41
2023/01/10 02:53:34;;;;;;;12.23;3.85;;;4.60;99.90;;;;;;4991215;28;20092;-41
2023/01/10 02:56:15;;;;;;;11.82;3.92;;;4.60;99.90;;;;;;5016566;28;20163;-40
2023/01/10 02:59:05;;;;;;;10.77;4.80;;;4.60;99.90;;;;;;5011299;28;20073;-41
2023/01/10 03:01:31;;;;;;;17.83;4.65;;;4.60;99.90;;;;;;4997678;28;20046;-41
2023/01/10 03:03:56;;;;;;;17.50;5.00;;;4.60;99.90;;;;;;5005055;28;20060;-40
2023/01/10 03:06:29;;;;;;;14.95;5.13;;;4.70;99.90;;;;;;5001689;28;20398;-41
2023/01/10 03:09:14;;;;;;;14.90;4.17;;;4.70;99.90;;;;;;5022956;28;20091;-41
2023/01/10 03:11:43;;;;;;;17.75;4.55;;;4.70;99.90;;;;;;5012794;28;20332;-41
2023/01/10 03:14:23;;;;;;;16.00;4.78;;;4.70;99.90;;;;;;5017993;28;20516;-42
2023/01/10 03:16:57;;;;;;;23.92;5.15;;;4.80;99.90;;;;;;5003588;28;20044;-40
2023/01/10 03:19:30;;;;;;;16.77;5.72;;;4.80;99.90;;;;;;5007533;28;20038;-41
2023/01/10 03:21:59;;;;;;;15.07;5.00;;;4.80;99.90;;;;;;5000680;28;20048;-41
2023/01/10 03:24:40;;;;;;;12.45;3.95;;;4.80;99.90;;;;;;5018360;28;20040;-40
2023/01/10 03:27:28;;;;;;;14.82;3.83;;;4.80;99.90;;;;;;5005092;28;20048;-41
2023/01/10 03:30:12;;;;;;;14.32;4.40;;;4.80;99.90;;;;;;5021109;28;20476;-41
2023/01/10 03:32:38;;;;;;;8.35;4.00;;;4.80;99.90;;;;;;5003696;28;20038;-41
2023/01/10 03:35:05;;;;;;;14.63;4.25;;;4.80;99.90;;;;;;5006995;28;20046;-41
2023/01/10 03:37:35;;;;;;;13.77;4.63;;;4.80;99.90;;;;;;5004791;28;20030;-41
2023/01/10 03:40:12;;;;;;;10.68;4.25;;;4.80;99.90;;;;;;5004285;28;20038;-40
2023/01/10 03:45:56;;;;;;;12.77;3.95;;;4.80;99.90;;;;;;4997236;28;20104;-40
2023/01/10 03:48:25;;;;;;;15.35;3.75;;;4.80;99.90;;;;;;5007621;28;20104;-40
2023/01/10 03:50:52;;;;;;;10.98;3.58;;;4.80;99.90;;;;;;5016579;28;20042;-41
2023/01/10 03:53:18;;;;;;;15.52;4.05;;;4.70;99.90;;;;;;5006184;28;20447;-41
2023/01/10 03:55:44;;;;;;;14.25;3.85;;;4.70;99.90;;;;;;5004530;28;20042;-40
2023/01/10 03:58:10;;;;;;;16.92;3.70;;;4.70;99.90;;;;;;5009449;28;20048;-42
2023/01/10 04:00:36;;;;;;;12.35;3.95;;;4.70;99.90;;;;;;5015047;28;20038;-41
2023/01/10 04:03:02;;;;;;;12.07;3.17;;;4.70;99.90;;;;;;5002800;28;20503;-41
2023/01/10 04:05:27;;;;;;;16.73;3.38;;;4.70;99.90;;;;;;5006539;28;20120;-40
2023/01/10 04:07:53;;;;;;;19.30;3.97;;;4.70;99.90;;;;;;5022996;28;20092;-41
2023/01/10 04:10:20;;;;;;;13.32;3.83;;;4.70;99.90;;;;;;5011496;28;20030;-41
2023/01/10 04:12:45;;;;;;;14.48;4.40;;;4.80;99.90;;;;;;5005202;28;20045;-41
2023/01/10 04:15:12;;;;;;;12.85;3.97;;;4.80;99.90;;;;;;5009722;28;20489;-40
2023/01/10 04:17:37;;;;;;;15.73;4.03;;;4.90;99.90;;;;;;4995638;28;20034;-42
2023/01/10 04:20:03;;;;;;;14.38;4.03;;;4.90;99.90;;;;;;5012413;28;20411;-41
2023/01/10 04:22:29;;;;;;;17.83;4.47;;;4.90;99.90;;;;;;5009208;28;20133;-41
2023/01/10 04:24:55;;;;;;;11.32;3.33;;;4.90;99.90;;;;;;5010813;28;20507;-42
2023/01/10 04:27:21;;;;;;;11.13;4.10;;;5.00;99.90;;;;;;5010665;28;20040;-41
2023/01/10 04:29:46;;;;;;;17.42;5.07;;;5.10;99.90;;;;;;5007395;28;20068;-41
2023/01/10 04:32:12;;;;;;;18.73;3.70;;;5.10;99.90;;;;;;5001481;28;20038;-40
2023/01/10 04:34:38;;;;;;;15.60;4.70;;;5.20;99.90;;;;;;5010545;28;20030;-41
2023/01/10 04:37:04;;;;;;;17.17;4.20;;;5.20;99.90;;;;;;5008165;28;20545;-42
2023/01/10 04:39:30;;;;;;;19.00;4.28;;;5.30;99.90;;;;;;5004077;28;20089;-41
2023/01/10 04:41:56;;;;;;;17.23;4.10;;;5.30;99.90;;;;;;5006793;28;20041;-41
2023/01/10 04:44:21;;;;;;;16.58;4.00;;;5.30;99.90;;;;;;5003704;28;20038;-41
2023/01/10 04:46:47;;;;;;;15.30;4.40;;;5.30;99.90;;;;;;4992200;28;20052;-42
2023/01/10 04:49:13;;;;;;;20.40;3.83;;;5.40;99.90;;;;;;5011830;28;20104;-40
2023/01/10 04:51:39;;;;;;;16.33;3.92;;;5.40;99.90;;;;;;5010567;28;20138;-41
2023/01/10 04:54:05;;;;;;;15.50;4.10;;;5.40;99.90;;;;;;5006486;28;20491;-40
2023/01/10 04:56:31;;;;;;;14.45;3.95;;;5.40;99.90;;;;;;5009052;28;20065;-41
2023/01/10 04:58:57;;;;;;;23.35;4.30;;;5.40;99.90;;;;;;5005465;28;20502;-41
2023/01/10 05:01:24;;;;;;;16.42;4.03;;;5.40;99.90;;;;;;5020235;28;20052;-41
2023/01/10 05:03:52;;;;;;;14.60;3.80;;;5.40;99.90;;;;;;5012550;28;20528;-42
2023/01/10 05:06:19;;;;;;;18.45;4.57;;;5.40;99.90;;;;;;5007946;28;20419;-42
2023/01/10 05:08:45;;;;;;;16.48;4.45;;;5.40;99.90;;;;;;5009047;28;20057;-41
2023/01/10 05:11:12;;;;;;;20.23;4.47;;;5.40;99.90;;;;;;5008706;28;20038;-41
2023/01/10 05:13:38;;;;;;;16.75;4.00;;;5.40;99.90;;;;;;5011452;28;20041;-41
2023/01/10 05:16:04;;;;;;;18.35;4.10;;;5.50;99.90;;;;;;5003215;28;20049;-41
2023/01/10 05:18:30;;;;;;;15.32;4.32;;;5.50;99.90;;;;;;5006442;28;20042;-41
2023/01/10 05:21:01;;;;;;;19.27;5.00;;;5.50;99.90;;;;;;4997927;28;20054;-40
2023/01/10 05:23:27;;;;;;;18.40;4.80;;;5.50;99.90;;;;;;5000109;28;20034;-40
2023/01/10 05:25:53;;;;;;;17.23;5.32;;;5.50;99.90;;;;;;5003738;28;20049;-41
2023/01/10 05:28:19;;;;;;;19.85;4.75;;;5.50;99.90;;;;;;5002006;28;20042;-41
2023/01/10 05:30:45;;;;;;;22.33;5.25;;;5.50;99.90;;;;;;5007869;28;20206;-42
2023/01/10 05:33:10;;;;;;;19.20;5.00;;;5.50;99.90;;;;;;5002072;28;20042;-41
2023/01/10 05:35:42;;;;;;;20.33;5.15;;;5.50;99.90;;;;;;4994563;28;20571;-40
2023/01/10 05:38:09;;;;;;;16.67;4.97;;;5.50;99.90;;;;;;5003253;28;20053;-44
2023/01/10 05:40:35;;;;;;;21.23;5.75;;;5.50;99.90;;;;;;5003446;28;20039;-41
2023/01/10 05:43:00;;;;;;;18.02;4.85;;;5.50;99.90;;;;;;5012772;28;20230;-41
2023/01/10 05:45:26;;;;;;;17.48;5.28;;;5.50;99.90;;;;;;5005851;28;20070;-41
2023/01/10 05:47:52;;;;;;;19.15;5.32;;;5.50;99.90;;;;;;5016389;28;20054;-43
2023/01/10 05:50:20;;;;;;;18.42;5.38;;;5.50;99.90;;;;;;5030187;28;20060;-40
2023/01/10 05:52:46;;;;;;;15.90;5.10;;;5.60;99.90;;;;;;5007214;28;20044;-40
2023/01/10 05:55:12;;;;;;;22.92;5.30;;;5.60;99.90;;;;;;5007901;28;20042;-40
2023/01/10 05:57:38;;;;;;;17.75;4.72;;;5.60;99.90;;;;;;4994503;28;20073;-41
2023/01/10 06:00:05;;;;;;;13.93;4.78;;;5.60;99.90;;;;;;5007037;28;20038;-41
2023/01/10 06:02:31;;;;;;;15.32;4.85;;;5.60;99.90;;;;;;4993628;28;20133;-40
2023/01/10 06:04:57;;;;;;;22.35;5.22;;;5.60;99.90;;;;;;5010977;28;20038;-41
2023/01/10 06:07:23;;;;;;;24.73;5.65;;;5.60;99.90;;;;;;5010162;28;20088;-40
2023/01/10 06:09:50;;;;;;;22.90;5.28;;;5.60;99.90;;;;;;5011444;28;20199;-40
2023/01/10 06:12:17;;;;;;;18.08;5.35;;;5.60;99.90;;;;;;5001049;28;20033;-41
2023/01/10 06:14:44;;;;;;;16.50;5.22;;;5.60;99.90;;;;;;5005730;28;20034;-41
2023/01/10 06:17:09;;;;;;;16.58;4.10;;;5.60;99.90;;;;;;5000375;28;20096;-40
2023/01/10 06:19:36;;;;;;;18.80;4.85;;;5.60;99.90;;;;;;5025997;28;20069;-40
2023/01/10 06:22:02;;;;;;;14.60;4.75;;;5.60;99.90;;;;;;5003695;28;20104;-41
2023/01/10 06:24:28;;;;;;;20.20;4.70;;;5.60;99.90;;;;;;5003179;28;20463;-42
2023/01/10 06:26:54;;;;;;;23.20;5.53;;;5.60;99.90;;;;;;5002243;28;20074;-42
2023/01/10 06:29:20;;;;;;;19.45;5.22;;;5.60;99.90;;;;;;5006949;28;20030;-42
2023/01/10 06:31:46;;;;;;;26.83;12.05;;;5.50;99.90;;;;;;5010894;28;20112;-40
2023/01/10 06:34:11;;;;;;;19.30;6.45;;;5.50;99.90;;;;;;5004569;28;20033;-41
2023/01/10 06:36:37;;;;;;;24.42;5.90;;;5.40;99.90;;;;;;5008719;28;20033;-41
2023/01/10 06:39:03;;;;;;;21.33;6.60;;;5.40;99.90;;;;;;5008004;28;20045;-41
2023/01/10 06:41:29;;;;;;;27.23;10.38;;;5.40;99.90;;;;;;4998892;28;20049;-41
2023/01/10 06:43:55;;;;;;;28.23;10.60;;;5.40;99.90;;;;;;5004242;28;20046;-42
2023/01/10 06:46:21;;;;;;;23.95;7.45;;;5.40;99.90;;;;;;5005807;28;20056;-41
2023/01/10 06:48:47;;;;;;;22.52;6.55;;;5.40;99.90;;;;;;5016710;28;20034;-41
2023/01/10 06:51:14;;;;;;;29.05;7.00;;;5.40;99.90;;;;;;5009559;28;20109;-42
2023/01/10 06:53:41;;;;;;;20.70;7.22;;;5.40;99.90;;;;;;5004575;28;20042;-41
2023/01/10 06:56:08;;;;;;;22.80;7.60;;;5.40;99.90;;;;;;5020500;28;20502;-40
2023/01/10 06:58:34;;;;;;;19.52;7.55;;;5.40;99.90;;;;;;5007222;28;20050;-40
2023/01/10 07:01:00;;;;;;;29.70;11.55;;;5.40;99.90;;;;;;5008764;28;20037;-40
2023/01/10 07:03:26;;;;;;;43.05;18.80;;;5.30;99.90;;;;;;5007531;28;20080;-41
2023/01/10 07:05:51;;;;;;;18.33;6.68;;;5.30;99.90;;;;;;5009782;28;20478;-41
2023/01/10 07:08:17;;;;;;;22.80;8.52;;;5.30;99.90;;;;;;5010018;28;20484;-41
2023/01/10 07:10:43;;;;;;;20.92;7.20;;;5.30;99.90;;;;;;5008399;28;20117;-40
2023/01/10 07:13:09;;;;;;;22.20;6.22;;;5.20;99.90;;;;;;5020349;28;20046;-41
2023/01/10 07:15:35;;;;;;;17.27;6.57;;;5.20;99.90;;;;;;5011880;28;20038;-41
2023/01/10 07:18:01;;;;;;;23.60;7.38;;;5.20;99.90;;;;;;5014035;28;20404;-41
2023/01/10 07:20:28;;;;;;;23.40;6.68;;;5.20;99.90;;;;;;5016089;28;20044;-40
2023/01/10 07:22:58;;;;;;;24.17;7.40;;;5.10;99.90;;;;;;5007447;28;20042;-41
2023/01/10 07:25:27;;;;;;;28.00;8.60;;;5.20;99.90;;;;;;5010668;28;20041;-41
2023/01/10 07:27:55;;;;;;;24.25;8.38;;;5.20;99.90;;;;;;5004983;28;20100;-41
2023/01/10 07:30:22;;;;;;;17.80;6.47;;;5.20;99.90;;;;;;5011307;28;20095;-41
2023/01/10 07:32:57;;;;;;;23.40;9.20;;;5.20;99.90;;;;;;5007701;28;20034;-40
2023/01/10 07:35:24;;;;;;;26.60;8.90;;;5.20;99.90;;;;;;5008943;28;20042;-41
2023/01/10 07:37:50;;;;;;;26.58;11.40;;;5.20;99.90;;;;;;5010658;28;20131;-41
2023/01/10 07:40:16;;;;;;;26.45;11.57;;;5.10;99.90;;;;;;5013736;28;20442;-40
2023/01/10 07:42:41;;;;;;;28.67;12.70;;;5.10;99.90;;;;;;5011484;28;20048;-41
2023/01/10 07:45:07;;;;;;;21.75;8.45;;;5.10;99.90;;;;;;5008106;28;20039;-41
2023/01/10 07:47:33;;;;;;;25.10;9.00;;;5.10;99.90;;;;;;5011467;28;20033;-40
2023/01/10 07:49:59;;;;;;;25.35;7.22;;;5.10;99.90;;;;;;5017294;28;20049;-41
2023/01/10 07:52:25;;;;;;;20.25;8.80;;;5.10;99.90;;;;;;5005412;28;20476;-41
2023/01/10 07:54:52;;;;;;;23.40;11.23;;;5.10;99.90;;;;;;5013480;28;20042;-41
2023/01/10 07:57:18;;;;;;;29.63;8.57;;;5.10;99.90;;;;;;5008902;28;20033;-41
2023/01/10 07:59:44;;;;;;;36.25;12.38;;;5.10;99.90;;;;;;5016627;28;20077;-40
2023/01/10 08:02:10;;;;;;;31.27;13.18;;;5.00;99.90;;;;;;5009579;28;20050;-41
2023/01/10 08:04:39;;;;;;;25.33;8.48;;;5.00;99.90;;;;;;5004408;28;20034;-40
2023/01/10 08:07:05;;;;;;;32.80;13.20;;;5.00;99.90;;;;;;5008451;28;20041;-41
2023/01/10 08:09:31;;;;;;;23.90;10.15;;;5.10;99.90;;;;;;5010834;28;20034;-43
2023/01/10 08:11:57;;;;;;;27.02;8.68;;;5.10;99.90;;;;;;5003839;28;20506;-40
2023/01/10 08:14:23;;;;;;;24.95;6.65;;;5.10;99.90;;;;;;5012613;28;20108;-40
2023/01/10 08:16:48;;;;;;;22.05;6.72;;;5.10;99.90;;;;;;5010372;28;20037;-40
2023/01/10 08:19:16;;;;;;;18.75;6.53;;;5.10;99.90;;;;;;4981043;28;20121;-41
2023/01/10 08:21:43;;;;;;;22.38;7.00;;;5.10;99.90;;;;;;5009629;28;20042;-41
2023/01/10 08:24:09;;;;;;;28.70;7.10;;;5.10;99.90;;;;;;5020327;28;20042;-41
2023/01/10 08:26:34;;;;;;;22.42;6.90;;;5.10;99.90;;;;;;5001019;28;20376;-40
2023/01/10 08:29:00;;;;;;;27.10;6.88;;;5.20;99.90;;;;;;5005169;28;20025;-43
2023/01/10 08:31:27;;;;;;;25.05;6.60;;;5.20;99.90;;;;;;5009607;28;20121;-41
2023/01/10 08:33:53;;;;;;;20.63;5.35;;;5.20;99.90;;;;;;4998576;28;20124;-40
2023/01/10 08:36:20;;;;;;;27.02;6.78;;;5.20;99.90;;;;;;4998151;28;20117;-42
2023/01/10 08:38:47;;;;;;;27.05;6.60;;;5.20;99.90;;;;;;5010527;28;20491;-41
2023/01/10 08:41:13;;;;;;;26.52;6.60;;;5.30;99.90;;;;;;4994464;28;20042;-42
2023/01/10 08:43:42;;;;;;;21.27;6.15;;;5.30;99.90;;;;;;5012161;28;20045;-40
2023/01/10 08:46:08;;;;;;;24.27;6.75;;;5.40;99.90;;;;;;5005775;28;20030;-41
2023/01/10 08:48:33;;;;;;;22.52;6.07;;;5.30;99.90;;;;;;5012946;28;20088;-40
2023/01/10 08:51:07;;;;;;;26.35;6.18;;;5.30;99.90;;;;;;5016653;28;20080;-40
2023/01/10 08:53:33;;;;;;;21.50;6.60;;;5.30;99.90;;;;;;5011773;28;20396;-41
2023/01/10 08:55:59;;;;;;;25.70;5.82;;;5.30;99.90;;;;;;5015393;28;20046;-40
2023/01/10 08:58:25;;;;;;;20.85;5.63;;;5.40;99.90;;;;;;5000182;28;20053;-41
2023/01/10 09:00:51;;;;;;;26.55;6.18;;;5.40;99.90;;;;;;5006562;28;20450;-40
2023/01/10 09:03:18;;;;;;;22.85;6.18;;;5.60;99.90;;;;;;5028265;28;20060;-41
2023/01/10 09:05:43;;;;;;;35.58;10.10;;;5.60;99.90;;;;;;5030786;28;20117;-41
2023/01/10 09:08:10;;;;;;;47.13;16.92;;;5.70;99.90;;;;;;5014264;28;20073;-43
2023/01/10 09:10:36;;;;;;;32.90;12.38;;;5.80;99.90;;;;;;5014439;28;20056;-41
2023/01/10 09:13:03;;;;;;;26.17;9.77;;;5.80;99.90;;;;;;5005078;28;20046;-41
2023/01/10 09:15:32;;;;;;;22.85;7.03;;;5.90;99.90;;;;;;5020825;28;20399;-41
2023/01/10 09:18:04;;;;;;;26.60;6.80;;;6.00;99.90;;;;;;5013092;28;20046;-43
2023/01/10 09:20:31;;;;;;;18.35;8.20;;;6.10;99.90;;;;;;5009434;28;20048;-42
2023/01/10 09:22:58;;;;;;;28.40;8.35;;;6.10;99.90;;;;;;5017041;28;20042;-42
2023/01/10 09:25:24;;;;;;;26.00;6.97;;;6.10;99.90;;;;;;5012287;28;20042;-41
2023/01/10 09:28:01;;;;;;;29.00;7.90;;;6.20;99.90;;;;;;4997699;28;20034;-42
2023/01/10 09:30:29;;;;;;;25.63;7.70;;;6.20;99.90;;;;;;5011949;28;20527;-41
2023/01/10 09:32:56;;;;;;;20.33;6.53;;;6.30;99.90;;;;;;5029050;28;20057;-42
2023/01/10 09:35:24;;;;;;;27.48;8.80;;;6.30;99.90;;;;;;5017416;28;20041;-39
2023/01/10 09:37:57;;;;;;;24.35;10.48;;;6.40;99.90;;;;;;5016283;28;20049;-39
2023/01/10 09:40:43;;;;;;;26.23;10.90;;;6.40;99.90;;;;;;5012183;28;20052;-39
2023/01/10 09:43:50;;;;;;;32.17;10.27;;;6.50;99.90;;;;;;5008259;28;20044;-42
2023/01/10 09:46:36;;;;;;;19.55;7.60;;;6.60;99.90;;;;;;4947082;28;20036;-39
2023/01/10 09:49:32;;;;;;;27.02;9.45;;;6.70;99.90;;;;;;5001659;28;20054;-41
2023/01/10 09:51:59;;;;;;;32.20;13.00;;;6.70;99.90;;;;;;5005734;28;20033;-40
2023/01/10 09:54:27;;;;;;;30.45;12.73;;;6.80;99.90;;;;;;5028918;28;20042;-40
2023/01/10 09:56:54;;;;;;;26.73;8.65;;;6.80;99.90;;;;;;5012213;28;20527;-39
2023/01/10 09:59:24;;;;;;;24.90;9.02;;;6.90;99.90;;;;;;5025755;28;20082;-40
2023/01/10 10:02:01;;;;;;;29.45;10.75;;;6.90;99.90;;;;;;5024740;28;20048;-41
2023/01/10 10:04:35;;;;;;;24.33;9.10;;;6.90;99.90;;;;;;5010327;28;20101;-40
2023/01/10 10:07:01;;;;;;;;;;;6.90;99.90;;;;;;5013808;28;20042;-39
2023/01/10 10:09:33;;;;;;;25.30;9.20;;;6.90;99.90;;;;;;5012699;28;20003;-39
2023/01/10 10:12:17;;;;;;;24.85;9.57;;;6.90;99.90;;;;;;5009368;28;20029;-40
2023/01/10 10:14:43;;;;;;;26.65;10.00;;;6.90;99.90;;;;;;5018539;28;20113;-39
2023/01/10 10:17:44;;;;;;;31.77;11.15;;;6.90;99.90;;;;;;5009454;28;20048;-41
2023/01/10 10:20:19;;;;;;;26.83;9.50;;;6.90;99.90;;;;;;5019036;28;20041;-42
2023/01/10 10:23:18;;;;;;;31.50;10.80;;;7.00;99.90;;;;;;5007833;28;20061;-42
2023/01/10 10:25:59;;;;;;;28.70;11.93;;;7.10;99.90;;;;;;5007675;28;20034;-42
2023/01/10 10:28:31;;;;;;;38.30;17.05;;;7.10;99.90;;;;;;5010683;28;20069;-41
2023/01/10 10:31:27;;;;;;;22.30;10.48;;;7.10;99.90;;;;;;5011420;28;20034;-41
2023/01/10 10:34:04;;;;;;;30.55;13.57;;;7.10;99.90;;;;;;5003526;28;20054;-40
2023/01/10 10:36:36;;;;;;;25.50;10.48;;;7.10;99.90;;;;;;5015559;28;20080;-42
2023/01/10 10:39:03;;;;;;;26.63;10.15;;;7.10;99.90;;;;;;5018484;28;20053;-41
2023/01/10 10:41:39;;;;;;;24.75;10.15;;;7.10;99.90;;;;;;5017645;28;20515;-40
2023/01/10 10:44:33;;;;;;;22.58;9.07;;;7.20;99.90;;;;;;5007510;28;20033;-40
2023/01/10 10:46:59;;;;;;;22.23;8.05;;;7.20;99.90;;;;;;5025850;28;20649;-41
2023/01/10 10:49:37;;;;;;;30.00;10.43;;;7.20;99.90;;;;;;5007602;28;20033;-40
2023/01/10 10:52:13;;;;;;;22.90;9.45;;;7.20;99.90;;;;;;5015993;28;20547;-42
2023/01/10 10:54:38;;;;;;;24.90;8.60;;;7.20;99.90;;;;;;5027773;28;20037;-41
2023/01/10 10:57:04;;;;;;;21.50;8.40;;;7.20;99.90;;;;;;5010789;28;20128;-41
2023/01/10 10:59:30;;;;;;;24.63;8.05;;;7.20;99.90;;;;;;4997837;28;20046;-41
2023/01/10 11:01:56;;;;;;;24.92;7.55;;;7.20;99.90;;;;;;5031816;28;20502;-42
2023/01/10 11:04:23;;;;;;;25.75;8.80;;;7.20;99.90;;;;;;5008111;28;20053;-41
2023/01/10 11:06:49;;;;;;;24.67;8.60;;;7.30;99.90;;;;;;5017795;28;20037;-40
2023/01/10 11:12:05;;;;;;;21.83;7.45;;;7.30;99.90;;;;;;5006628;28;20038;-42
2023/01/10 11:14:48;;;;;;;16.13;7.80;;;7.30;99.90;;;;;;4998570;28;20489;-42
2023/01/10 11:17:29;;;;;;;21.45;8.32;;;7.30;99.90;;;;;;5016322;28;20041;-42
2023/01/10 11:19:56;;;;;;;25.10;7.32;;;7.30;99.90;;;;;;5014138;28;20495;-41
2023/01/10 11:22:23;;;;;;;17.98;7.05;;;7.30;99.90;;;;;;5031990;28;20132;-41
2023/01/10 11:24:55;;;;;;;20.83;6.72;;;7.30;99.90;;;;;;5019975;28;20492;-41
2023/01/10 11:27:25;;;;;;;21.98;5.88;;;7.40;99.90;;;;;;5010647;28;20056;-41
2023/01/10 11:29:59;;;;;;;24.08;6.70;;;7.30;99.90;;;;;;5006677;28;20038;-42
2023/01/10 11:32:37;;;;;;;21.90;7.43;;;7.30;99.90;;;;;;5015596;28;20030;-41
2023/01/10 11:35:16;;;;;;;12.73;5.50;;;7.30;99.90;;;;;;5010311;28;20048;-41
2023/01/10 11:37:42;;;;;;;19.02;6.38;;;7.40;99.90;;;;;;5031471;28;20457;-41
2023/01/10 11:40:26;;;;;;;19.35;8.27;;;7.40;99.90;;;;;;4995596;28;20046;-42
2023/01/10 11:42:54;;;;;;;22.50;6.50;;;7.30;99.90;;;;;;5021521;28;20038;-41
2023/01/10 11:45:24;;;;;;;22.15;7.10;;;7.30;99.90;;;;;;5014760;28;20085;-42
2023/01/10 11:47:53;;;;;;;16.05;6.30;;;7.40;99.90;;;;;;5006495;28;20042;-42
2023/01/10 11:50:23;;;;;;;18.27;6.43;;;7.30;99.90;;;;;;5014236;28;20073;-44
2023/01/10 11:52:50;;;;;;;24.17;7.15;;;7.30;99.90;;;;;;5009010;28;20049;-41
2023/01/10 11:59:17;;;;;;;21.05;6.95;;;7.20;99.90;;;;;;4968425;28;20098;-37
2023/01/10 12:02:00;;;;;;;17.35;6.57;;;7.20;99.90;;;;;;4980248;28;20077;-37
2023/01/10 12:04:29;;;;;;;19.20;6.65;;;7.10;99.90;;;;;;4991695;28;20042;-37
2023/01/10 12:07:01;;;;;;;24.70;6.95;;;7.10;99.90;;;;;;5017874;28;20542;-37
2023/01/10 12:13:15;;;;;;;19.23;6.00;;;7.10;99.90;;;;;;4904589;28;20049;-38
2023/01/10 12:15:41;;;;;;;16.67;5.68;;;7.00;99.90;;;;;;5016972;28;20427;-37
2023/01/10 12:18:10;;;;;;;22.00;6.65;;;7.00;99.90;;;;;;5016876;28;20268;-37
2023/01/10 12:20:49;;;;;;;26.88;6.60;;;7.00;99.90;;;;;;5029395;28;20041;-37
2023/01/10 12:23:21;;;;;;;29.27;6.88;;;6.90;99.90;;;;;;5016552;28;20042;-37
2023/01/10 12:25:47;;;;;;;18.63;6.05;;;6.90;99.90;;;;;;4996236;28;20048;-43
2023/01/10 12:28:19;;;;;;;17.05;5.85;;;6.90;99.90;;;;;;4996610;28;20082;-37
2023/01/10 12:30:51;;;;;;;22.85;5.88;;;6.90;99.90;;;;;;5028146;28;20037;-37
2023/01/10 12:33:35;;;;;;;22.00;6.45;;;6.90;99.90;;;;;;5035884;28;20037;-37
2023/01/10 12:36:25;;;;;;;21.48;6.32;;;6.90;99.90;;;;;;5036196;28;20093;-37
2023/01/10 12:39:05;;;;;;;18.35;6.22;;;6.80;99.90;;;;;;5015568;28;20049;-37
2023/01/10 12:44:46;;;;;;;20.63;6.45;;;6.80;99.90;;;;;;4998370;28;20077;-37
2023/01/10 12:47:41;;;;;;;27.10;7.07;;;6.80;99.90;;;;;;4996201;28;20172;-37
2023/01/10 12:50:31;;;;;;;16.63;6.00;;;6.80;99.90;;;;;;4996137;28;20038;-37
2023/01/10 12:53:12;;;;;;;17.08;6.07;;;6.80;99.90;;;;;;4996431;28;20457;-37
2023/01/10 12:55:41;;;;;;;20.00;5.53;;;6.80;99.90;;;;;;4995993;28;20034;-37
2023/01/10 12:58:16;;;;;;;17.42;5.97;;;6.80;99.90;;;;;;5026920;28;20040;-37
2023/01/10 13:00:45;;;;;;;22.80;6.75;;;6.80;99.90;;;;;;5016124;28;20041;-37
2023/01/10 13:03:21;;;;;;;17.80;6.32;;;6.80;99.90;;;;;;5015583;28;20045;-37
2023/01/10 13:05:48;;;;;;;17.65;5.65;;;6.80;99.90;;;;;;5041919;28;20029;-37
2023/01/10 13:08:18;;;;;;;19.83;6.25;;;6.80;99.90;;;;;;5034721;28;20132;-37
2023/01/10 13:10:51;;;;;;;18.17;5.95;;;6.80;99.90;;;;;;5025621;28;20034;-37
2023/01/10 13:13:35;;;;;;;21.80;6.05;;;6.80;99.90;;;;;;5023337;28;20399;-36
2023/01/10 13:16:00;;;;;;;;;;;6.80;99.90;;;;;;5013555;28;20046;-37
2023/01/10 13:18:29;;;;;;;21.20;5.32;;;6.70;99.90;;;;;;5051500;28;19917;-37
2023/01/10 13:21:07;;;;;;;18.90;5.20;;;6.80;99.90;;;;;;4997964;28;20518;-36
2023/01/10 13:23:47;;;;;;;19.42;5.30;;;6.80;99.90;;;;;;4997633;28;20053;-36